Time;durP1;ratioP1;P1;durP2;ratioP2;P2;SDS_P1;SDS_P2;PMS_P1;PMS_P2;Temp;Humidity;BMP_temperature;BMP_pressure;BME280_temperature;BME280_humidity;BME280_pressure;Samples;Min_cycle;Max_cycle;Signal;HPM_P1;HPM_P2
2022/09/27 00:01:02;;;;;;;23.63;5.30;;;13.50;99.90;;;13.85;82.67;99622.06;4824743;29;20405;-80
2022/09/27 00:03:31;;;;;;;17.87;5.17;;;13.60;99.90;;;13.52;83.28;99615.31;4825061;29;20103;-80
2022/09/27 00:06:06;;;;;;;20.92;4.95;;;13.40;99.90;;;13.39;82.16;99579.53;4824685;29;20554;-79
2022/09/27 00:08:36;;;;;;;15.32;5.43;;;13.40;99.90;;;13.58;81.95;99623.97;4824729;29;20489;-78
2022/09/27 00:11:08;;;;;;;21.37;5.23;;;13.30;99.90;;;13.53;81.50;99607.28;4824727;29;20050;-78
2022/09/27 00:13:37;;;;;;;16.58;5.07;;;13.30;99.90;;;13.61;80.67;99627.41;4825017;29;20050;-78
2022/09/27 00:16:05;;;;;;;14.75;4.93;;;13.30;99.90;;;13.76;79.55;99632.16;4825013;29;20052;-75
2022/09/27 00:18:34;;;;;;;19.02;5.05;;;13.50;99.90;;;13.85;78.45;99621.19;4824352;29;20054;-77
2022/09/27 00:21:08;;;;;;;21.45;5.25;;;13.60;99.90;;;13.81;78.54;99627.53;4824680;29;20046;-77
2022/09/27 00:23:37;;;;;;;20.15;5.10;;;13.60;99.90;;;13.87;78.14;99624.66;4824549;29;20055;-77
2022/09/27 00:26:11;;;;;;;14.90;4.43;;;13.60;99.90;;;13.91;78.11;99628.94;4824382;29;20141;-76
2022/09/27 00:28:40;;;;;;;16.38;4.32;;;13.60;99.90;;;13.86;77.36;99631.75;4824468;29;20148;-77
2022/09/27 00:31:20;;;;;;;14.43;4.65;;;13.70;99.90;;;13.92;78.53;99633.31;4824626;29;20047;-76
2022/09/27 00:33:49;;;;;;;16.42;5.00;;;13.60;99.90;;;13.96;77.61;99630.47;4837483;29;20059;-76
2022/09/27 00:36:19;;;;;;;17.63;4.70;;;13.70;99.90;;;14.07;77.35;99632.75;4824770;29;20053;-76
2022/09/27 00:38:48;;;;;;;19.70;5.43;;;13.80;99.90;;;14.01;76.88;99633.84;4838681;29;20051;-76
2022/09/27 00:41:22;;;;;;;15.75;5.07;;;13.70;99.90;;;14.18;76.56;99657.13;4824418;29;20042;-76
2022/09/27 00:43:53;;;;;;;19.02;4.20;;;13.90;99.90;;;13.56;75.53;99530.16;4824641;29;20063;-76
2022/09/27 00:46:29;;;;;;;18.13;4.93;;;14.00;99.90;;;14.18;75.10;99638.50;4838030;29;20053;-76
2022/09/27 00:49:07;;;;;;;26.42;4.63;;;14.00;99.90;;;14.04;73.81;99647.00;4824385;29;20077;-76
2022/09/27 00:51:37;;;;;;;17.45;4.38;;;13.90;99.90;;;13.89;74.50;99668.88;4838150;29;20083;-77
2022/09/27 00:54:07;;;;;;;19.33;4.80;;;13.80;99.90;;;13.69;76.76;99662.53;4824330;29;20046;-76
2022/09/27 00:56:37;;;;;;;24.80;5.38;;;13.50;99.90;;;13.72;77.43;99651.81;4824246;29;20052;-76
2022/09/27 00:59:13;;;;;;;22.30;5.32;;;13.50;99.90;;;13.92;76.72;99652.78;4824348;29;20051;-76
2022/09/27 01:01:42;;;;;;;26.77;5.57;;;13.60;99.90;;;14.06;76.53;99653.16;4824044;29;20057;-76
2022/09/27 01:04:13;;;;;;;21.33;5.40;;;13.70;99.90;;;13.92;77.55;99655.44;4838033;29;20473;-76
2022/09/27 01:06:41;;;;;;;17.25;5.43;;;13.70;99.90;;;13.74;78.50;99655.28;4838006;29;20088;-76
2022/09/27 01:09:11;;;;;;;22.08;6.25;;;13.50;99.90;;;13.46;80.76;99655.41;4838112;29;20053;-76
2022/09/27 01:11:46;;;;;;;15.10;4.53;;;13.30;99.90;;;13.30;80.87;99659.50;4838164;29;20062;-76
2022/09/27 01:14:37;;;;;;;17.25;4.85;;;13.10;99.90;;;13.22;80.91;99657.09;4838240;29;20099;-75
2022/09/27 01:17:24;;;;;;;20.63;5.50;;;13.00;99.90;;;13.30;81.32;99651.53;4824371;29;20050;-75
2022/09/27 01:20:35;;;;;;;17.15;4.70;;;13.00;99.90;;;13.30;81.04;99659.50;4838063;29;20046;-76
2022/09/27 01:23:47;;;;;;;17.30;4.82;;;13.00;99.90;;;13.34;81.29;99655.81;4824073;29;20046;-76
2022/09/27 01:26:32;;;;;;;14.18;4.50;;;13.10;99.90;;;13.47;80.57;99654.47;4821546;29;20099;-74
2022/09/27 01:29:10;;;;;;;18.35;5.03;;;13.20;99.90;;;13.10;80.92;99616.84;4837915;29;20051;-76
2022/09/27 01:31:49;;;;;;;16.33;4.80;;;13.10;99.90;;;13.51;80.74;99661.44;4837861;29;20059;-76
2022/09/27 01:34:26;;;;;;;16.10;3.95;;;13.20;99.90;;;13.28;79.52;99648.06;4837782;29;20497;-76
2022/09/27 01:37:01;;;;;;;13.65;4.45;;;13.00;99.90;;;13.48;79.79;99638.50;4837793;29;20076;-76
2022/09/27 01:39:40;;;;;;;12.82;4.60;;;13.20;99.90;;;13.62;78.91;99647.75;4837945;29;20061;-75
2022/09/27 01:42:33;;;;;;;15.40;5.20;;;13.30;99.90;;;13.64;78.65;99644.13;4823696;29;20053;-75
2022/09/27 01:45:09;;;;;;;17.60;4.85;;;13.40;99.90;;;13.80;77.80;99647.06;4840221;29;20382;-75
2022/09/27 01:47:53;;;;;;;17.88;4.60;;;13.50;99.90;;;13.96;77.51;99661.50;4841188;29;20055;-75
2022/09/27 01:50:45;;;;;;;13.00;4.68;;;13.70;99.90;;;13.95;77.23;99650.03;4827128;29;20456;-75
2022/09/27 01:53:20;;;;;;;14.57;4.40;;;13.70;99.90;;;13.90;76.22;99645.81;4841101;29;20066;-76
2022/09/27 01:56:11;;;;;;;11.25;3.95;;;13.70;99.90;;;13.91;75.78;99648.41;4841049;29;20046;-75
2022/09/27 01:58:56;;;;;;;8.52;3.72;;;13.70;99.90;;;14.04;75.18;99648.78;4825678;29;20093;-75
2022/09/27 02:01:29;;;;;;;14.02;4.03;;;13.80;99.90;;;13.90;75.15;99665.25;4841147;29;20106;-76
2022/09/27 02:04:01;;;;;;;8.85;3.78;;;13.60;99.90;;;13.84;73.96;99632.75;4840691;29;20058;-76
2022/09/27 02:06:58;;;;;;;12.80;3.72;;;13.70;99.90;;;13.87;72.32;99635.28;4826493;29;20076;-76
2022/09/27 02:09:36;;;;;;;10.32;3.70;;;13.70;99.90;;;13.91;71.67;99626.28;4826790;29;20050;-76
2022/09/27 02:12:27;;;;;;;18.33;4.10;;;13.70;99.90;;;13.77;71.98;99633.88;4826382;29;20413;-75
2022/09/27 02:15:00;;;;;;;12.07;4.03;;;13.60;99.90;;;13.71;72.57;99650.06;4826882;29;20046;-75
2022/09/27 02:17:41;;;;;;;11.82;4.05;;;13.50;99.90;;;13.76;72.26;99658.75;4840925;29;20050;-76
2022/09/27 02:20:18;;;;;;;9.38;4.07;;;13.50;99.90;;;13.41;72.15;99655.53;4840717;29;20413;-74
2022/09/27 02:23:03;;;;;;;10.13;4.07;;;13.30;99.90;;;13.48;72.76;99653.56;4840653;29;20056;-76
2022/09/27 02:25:40;;;;;;;7.33;3.27;;;13.30;99.90;;;13.46;73.56;99664.25;4840528;29;20497;-76
2022/09/27 02:28:20;;;;;;;10.20;3.97;;;13.30;99.90;;;13.42;74.41;99654.63;4840516;29;20113;-76
2022/09/27 02:30:49;;;;;;;6.72;4.10;;;13.20;99.90;;;13.38;74.57;99642.38;4840513;29;20095;-76
2022/09/27 02:33:30;;;;;;;10.70;3.42;;;13.20;99.90;;;13.22;75.04;99627.91;4826214;29;20439;-76
2022/09/27 02:36:02;;;;;;;9.45;3.80;;;13.20;99.90;;;13.48;75.19;99635.84;4840326;29;20074;-76
2022/09/27 02:38:30;;;;;;;;;;;13.30;99.90;;;13.49;75.43;99642.88;4840544;29;20565;-76
2022/09/27 02:41:00;;;;;;;10.03;4.17;;;13.30;99.90;;;13.51;76.15;99638.38;4840502;29;19925;-77
2022/09/27 02:43:32;;;;;;;8.88;3.38;;;13.30;99.90;;;13.26;76.87;99620.69;4826154;29;20121;-76
2022/09/27 02:46:33;;;;;;;11.05;3.85;;;13.20;99.90;;;13.46;77.02;99650.94;4825094;29;20061;-76
2022/09/27 02:49:20;;;;;;;13.80;3.80;;;13.20;99.90;;;13.51;77.29;99649.00;4840150;29;20382;-76
2022/09/27 02:52:18;;;;;;;9.52;3.70;;;13.20;99.90;;;13.55;77.92;99641.78;4840342;29;20417;-76
2022/09/27 02:54:58;;;;;;;8.93;3.95;;;13.30;99.90;;;13.55;78.41;99650.63;4839968;29;20050;-77
2022/09/27 02:58:03;;;;;;;10.75;3.97;;;13.30;99.90;;;13.57;78.38;99631.94;4839936;29;20134;-75
2022/09/27 03:01:02;;;;;;;9.65;3.70;;;13.30;99.90;;;13.64;77.71;99645.91;4840037;29;20054;-77
2022/09/27 03:03:56;;;;;;;10.45;4.00;;;13.30;99.90;;;13.62;77.35;99640.66;4825235;29;20068;-76
2022/09/27 03:06:25;;;;;;;8.48;3.88;;;13.30;99.90;;;13.50;77.56;99643.75;4825943;29;20051;-77
2022/09/27 03:08:55;;;;;;;12.40;3.70;;;13.30;99.90;;;13.42;77.29;99651.97;4825821;29;20050;-77
2022/09/27 03:11:24;;;;;;;7.13;3.30;;;13.20;99.90;;;13.47;77.07;99642.03;4839877;29;20141;-77
2022/09/27 03:13:52;;;;;;;13.05;4.22;;;13.20;99.90;;;13.51;75.90;99650.81;4825885;29;20046;-77
2022/09/27 03:16:40;;;;;;;16.45;4.07;;;13.20;99.90;;;13.54;75.79;99656.00;4839779;29;20054;-77
2022/09/27 03:19:31;;;;;;;10.77;3.80;;;13.20;99.90;;;13.54;75.45;99646.25;4839903;29;20054;-76
2022/09/27 03:22:20;;;;;;;11.23;4.18;;;13.20;99.90;;;13.50;75.80;99647.28;4825509;29;20082;-77
2022/09/27 03:24:50;;;;;;;14.88;3.95;;;13.20;99.90;;;13.46;75.94;99658.94;4825444;29;20497;-76
2022/09/27 03:27:18;;;;;;;15.95;3.70;;;13.20;99.90;;;13.20;76.48;99648.31;4839873;29;20558;-76
2022/09/27 03:29:46;;;;;;;10.63;4.63;;;13.00;99.90;;;13.18;76.64;99647.50;4826518;29;20049;-76
2022/09/27 03:32:16;;;;;;;7.43;3.40;;;12.90;99.90;;;12.25;76.19;99547.22;4840038;29;20073;-77
2022/09/27 03:35:08;;;;;;;8.73;3.40;;;12.80;99.90;;;12.85;77.31;99646.00;4825666;29;20111;-77
2022/09/27 03:37:36;;;;;;;8.48;3.28;;;12.60;99.90;;;12.88;77.20;99648.53;4840595;29;20077;-76
2022/09/27 03:40:08;;;;;;;5.35;3.47;;;12.60;99.90;;;12.73;78.18;99654.34;4839153;29;20121;-77
2022/09/27 03:42:36;;;;;;;5.97;3.13;;;12.60;99.90;;;13.14;77.41;99656.50;4839065;29;20054;-77
2022/09/27 03:45:06;;;;;;;4.43;3.10;;;12.80;99.90;;;13.37;76.82;99658.38;4839019;29;20103;-76
2022/09/27 03:47:34;;;;;;;7.13;3.35;;;13.00;99.90;;;13.46;76.44;99658.94;4823718;29;20056;-76
2022/09/27 03:50:03;;;;;;;8.65;3.65;;;13.20;99.90;;;13.29;76.64;99648.03;4838951;29;20505;-76
2022/09/27 03:52:31;;;;;;;7.43;3.53;;;13.10;99.90;;;13.21;78.08;99673.97;4824992;29;20056;-76
2022/09/27 03:54:59;;;;;;;9.40;4.30;;;13.00;99.90;;;13.29;78.08;99674.59;4838848;29;20137;-76
2022/09/27 03:57:31;;;;;;;;;;;13.00;99.90;;;13.38;78.62;99674.25;4825591;29;20099;-75
2022/09/27 04:00:00;;;;;;;11.13;3.90;;;13.10;99.90;;;13.36;79.01;99657.50;4840543;29;20005;-76
2022/09/27 04:02:40;;;;;;;11.48;3.90;;;13.10;99.90;;;13.58;78.65;99653.19;4825593;29;20406;-75
2022/09/27 04:05:24;;;;;;;11.57;4.00;;;13.30;99.90;;;13.64;78.48;99644.13;4825256;29;20058;-76
2022/09/27 04:08:05;;;;;;;10.90;3.40;;;13.40;99.90;;;13.73;78.63;99649.09;4838849;29;20054;-76
2022/09/27 04:10:35;;;;;;;11.63;4.05;;;13.40;99.90;;;13.45;79.51;99654.50;4838937;29;20095;-76
2022/09/27 04:13:06;;;;;;;13.95;4.47;;;13.30;99.90;;;13.61;79.99;99659.31;4838869;29;20061;-76
2022/09/27 04:15:41;;;;;;;12.73;4.90;;;13.30;99.90;;;13.46;80.17;99669.53;4838815;29;20137;-76
2022/09/27 04:18:24;;;;;;;10.05;3.97;;;13.20;99.90;;;13.36;79.44;99657.50;4824912;29;20077;-78
2022/09/27 04:21:08;;;;;;;9.70;3.78;;;13.00;99.90;;;13.58;79.57;99663.81;4824853;29;20050;-78
2022/09/27 04:23:42;;;;;;;13.48;4.22;;;13.30;99.90;;;13.62;79.30;99669.88;4838637;29;20064;-78
2022/09/27 04:26:14;;;;;;;7.78;3.88;;;13.30;99.90;;;13.58;79.63;99653.19;4838727;29;20058;-78
2022/09/27 04:28:51;;;;;;;19.48;4.50;;;13.40;99.90;;;13.52;79.99;99652.53;4838624;29;20054;-78
2022/09/27 04:31:22;;;;;;;11.60;3.90;;;13.20;99.90;;;13.59;79.32;99657.56;4838655;29;20153;-78
2022/09/27 04:34:08;;;;;;;11.85;4.15;;;13.30;99.90;;;13.66;78.81;99655.56;4824965;29;20416;-77
2022/09/27 04:36:36;;;;;;;10.85;3.85;;;13.40;99.90;;;13.65;78.89;99660.91;4838655;29;20054;-78
2022/09/27 04:39:10;;;;;;;10.35;3.80;;;13.40;99.90;;;13.60;78.45;99674.38;4838171;29;20050;-79
2022/09/27 04:41:44;;;;;;;10.38;3.92;;;13.40;99.90;;;13.35;79.20;99673.50;4824413;29;20409;-76
2022/09/27 04:44:14;;;;;;;15.05;4.22;;;13.10;99.90;;;13.38;79.88;99687.53;4838412;29;20160;-79
2022/09/27 04:46:46;;;;;;;12.75;4.00;;;13.10;99.90;;;12.93;80.20;99667.81;4838367;29;20061;-79
2022/09/27 04:49:15;;;;;;;7.20;3.55;;;12.80;99.90;;;12.59;78.25;99654.78;4838200;29;20141;-77
2022/09/27 04:51:45;;;;;;;7.60;3.75;;;12.50;99.90;;;12.45;79.21;99651.72;4824797;29;20091;-77
2022/09/27 04:54:14;;;;;;;8.48;3.83;;;12.20;99.90;;;12.64;78.59;99654.63;4838134;29;20453;-79
2022/09/27 04:56:55;;;;;;;8.90;4.20;;;12.30;99.90;;;12.73;79.27;99651.69;4838502;29;20412;-79
2022/09/27 04:59:24;;;;;;;9.95;3.67;;;12.50;99.90;;;12.75;79.62;99646.34;4824576;29;20549;-78
2022/09/27 05:01:53;;;;;;;8.05;3.90;;;12.50;99.90;;;12.80;79.89;99647.91;4838125;29;20123;-78
2022/09/27 05:04:41;;;;;;;15.65;3.97;;;12.50;99.90;;;12.87;79.51;99646.81;4838247;29;20077;-78
2022/09/27 05:07:11;;;;;;;12.73;4.45;;;12.60;99.90;;;13.00;79.46;99650.78;4838268;29;20046;-79
2022/09/27 05:09:45;;;;;;;14.70;4.10;;;12.70;99.90;;;13.07;79.63;99647.03;4838406;29;20078;-80
2022/09/27 05:12:13;;;;;;;8.13;3.72;;;12.80;99.90;;;13.15;79.64;99638.78;4838419;29;20122;-79
2022/09/27 05:14:55;;;;;;;13.95;4.05;;;12.90;99.90;;;13.28;79.86;99640.97;4838371;29;20458;-78
2022/09/27 05:17:44;;;;;;;15.95;4.40;;;13.00;99.90;;;13.40;79.63;99648.50;4823874;29;20050;-78
2022/09/27 05:20:18;;;;;;;12.13;4.07;;;13.10;99.90;;;13.47;79.09;99646.53;4827152;29;20051;-76
2022/09/27 05:23:03;;;;;;;14.35;4.28;;;13.20;99.90;;;13.52;78.90;99639.25;4842073;29;20057;-77
2022/09/27 05:25:32;;;;;;;17.57;4.20;;;13.30;99.90;;;13.59;78.65;99641.63;4843606;29;20474;-77
2022/09/27 05:28:01;;;;;;;11.00;3.85;;;13.30;99.90;;;13.08;78.44;99570.91;4828077;29;20291;-77
2022/09/27 05:30:31;;;;;;;13.32;4.45;;;13.30;99.90;;;13.61;78.63;99646.88;4826309;29;20050;-77
2022/09/27 05:33:12;;;;;;;13.07;3.72;;;13.30;99.90;;;13.62;78.44;99651.28;4841058;29;20066;-76
2022/09/27 05:35:53;;;;;;;12.52;4.03;;;13.30;99.90;;;13.68;78.14;99644.88;4827375;29;20077;-76
2022/09/27 05:38:25;;;;;;;10.73;3.92;;;13.40;99.90;;;13.69;78.09;99655.44;4841661;29;20073;-76
2022/09/27 05:40:56;;;;;;;13.40;4.00;;;13.40;99.90;;;13.47;78.74;99654.47;4841429;29;20057;-76
2022/09/27 05:43:27;;;;;;;13.25;4.18;;;13.30;99.90;;;13.59;79.22;99654.91;4841279;29;20058;-76
2022/09/27 05:45:59;;;;;;;15.60;4.22;;;13.30;99.90;;;13.68;78.83;99655.50;4841351;29;20071;-76
2022/09/27 05:48:29;;;;;;;;;;;13.30;99.90;;;13.79;78.86;99663.94;4841770;29;20057;-76
2022/09/27 05:51:05;;;;;;;11.52;3.67;;;13.50;99.90;;;13.79;78.57;99658.63;4841078;29;19931;-76
2022/09/27 05:53:36;;;;;;;9.68;3.97;;;13.50;99.90;;;13.77;78.27;99661.34;4841045;29;20104;-76
2022/09/27 05:56:08;;;;;;;11.05;4.53;;;13.50;99.90;;;13.81;78.04;99662.97;4841144;29;20084;-77
2022/09/27 05:58:57;;;;;;;10.18;3.70;;;13.50;99.90;;;13.80;77.80;99665.69;4825359;29;20130;-75
2022/09/27 06:01:29;;;;;;;9.40;4.05;;;13.50;99.90;;;13.87;77.75;99661.88;4840871;29;20413;-76
2022/09/27 06:04:16;;;;;;;10.40;4.20;;;13.60;99.90;;;13.96;77.46;99656.19;4826652;29;20134;-75
2022/09/27 06:07:13;;;;;;;13.98;4.30;;;13.60;99.90;;;13.80;77.37;99631.97;4840668;29;20103;-77
2022/09/27 06:09:43;;;;;;;10.45;3.80;;;13.70;99.90;;;13.91;76.59;99664.38;4840701;29;20141;-78
2022/09/27 06:12:11;;;;;;;12.32;3.60;;;13.60;99.90;;;13.79;76.54;99659.50;4840659;29;20111;-73
2022/09/27 06:14:40;;;;;;;8.55;3.70;;;13.50;99.90;;;13.68;76.95;99661.69;4826268;29;20564;-77
2022/09/27 06:17:15;;;;;;;12.30;3.85;;;13.40;99.90;;;13.68;77.15;99655.50;4840719;29;20478;-77
2022/09/27 06:19:46;;;;;;;8.05;3.80;;;13.30;99.90;;;13.68;77.46;99660.81;4840176;29;20107;-73
2022/09/27 06:22:15;;;;;;;18.33;4.10;;;13.40;99.90;;;13.74;77.50;99664.13;4840406;29;20107;-73
2022/09/27 06:24:55;;;;;;;10.30;4.00;;;13.40;99.90;;;13.64;78.13;99651.22;4840535;29;20063;-70
2022/09/27 06:27:26;;;;;;;10.07;3.90;;;13.40;99.90;;;13.72;78.35;99657.13;4840519;29;20050;-71
2022/09/27 06:29:59;;;;;;;10.13;3.88;;;13.40;99.90;;;13.70;78.69;99659.84;4839791;29;20050;-72
2022/09/27 06:32:41;;;;;;;12.55;4.32;;;13.40;99.90;;;13.73;78.84;99653.53;4839856;29;20097;-74
2022/09/27 06:35:29;;;;;;;8.27;3.92;;;13.40;99.90;;;13.71;78.06;99661.56;4840050;29;20050;-73
2022/09/27 06:37:58;;;;;;;7.15;3.55;;;13.40;99.90;;;13.76;78.12;99664.06;4825323;29;20055;-72
2022/09/27 06:40:26;;;;;;;9.95;4.05;;;13.40;99.90;;;13.57;77.72;99662.06;4840050;29;20237;-75
2022/09/27 06:43:18;;;;;;;10.15;3.92;;;13.30;99.90;;;13.66;76.92;99660.00;4825508;29;20471;-70
2022/09/27 06:46:05;;;;;;;9.43;3.93;;;13.30;99.90;;;13.48;75.59;99654.44;4825800;29;20054;-74
2022/09/27 06:48:55;;;;;;;10.52;4.32;;;13.30;99.90;;;13.54;75.78;99659.53;4826165;29;20352;-74
2022/09/27 06:51:23;;;;;;;;;;;13.20;99.90;;;13.36;76.13;99670.78;4826272;29;20389;-80
2022/09/27 06:53:52;;;;;;;10.82;3.80;;;13.10;99.90;;;13.30;77.39;99672.78;4825980;29;19950;-80
2022/09/27 06:56:20;;;;;;;9.40;3.50;;;13.00;99.90;;;13.11;77.12;99669.03;4839727;29;20059;-78
2022/09/27 07:02:10;;;;;;;12.35;3.92;;;12.90;99.90;;;13.23;78.29;99687.19;4787647;30;20074;-82
2022/09/27 07:05:02;;;;;;;6.78;3.42;;;12.90;99.90;;;13.53;76.47;99688.78;4787301;29;20075;-81
2022/09/27 07:07:42;;;;;;;8.55;3.85;;;13.20;99.90;;;13.30;75.92;99700.22;4814683;29;20050;-82
2022/09/27 07:10:12;;;;;;;9.93;3.92;;;13.10;99.90;;;13.51;76.27;99701.28;4825729;29;20050;-82
2022/09/27 07:12:40;;;;;;;16.23;4.03;;;13.20;99.90;;;13.47;75.81;99697.84;4839853;29;20110;-80
2022/09/27 07:15:11;;;;;;;11.53;3.90;;;13.30;99.90;;;13.23;75.40;99693.38;4840104;29;20058;-81
2022/09/27 07:17:39;;;;;;;6.57;3.30;;;13.10;99.90;;;13.47;75.16;99684.53;4839785;29;20770;-82
2022/09/27 07:20:10;;;;;;;9.90;3.88;;;13.30;99.90;;;13.61;75.01;99691.19;4839745;29;20053;-80
2022/09/27 07:22:41;;;;;;;8.55;3.95;;;13.40;99.90;;;13.53;74.65;99681.69;4839819;29;20065;-81
2022/09/27 07:25:10;;;;;;;9.15;3.50;;;13.40;99.90;;;13.68;74.25;99680.28;4839842;29;20061;-81
2022/09/27 07:27:40;;;;;;;10.13;3.70;;;13.50;99.90;;;13.74;73.90;99682.72;4839801;29;20047;-82
2022/09/27 07:30:12;;;;;;;7.40;3.38;;;13.50;99.90;;;13.74;73.92;99677.41;4839699;29;20485;-80
2022/09/27 07:32:41;;;;;;;8.80;3.20;;;13.60;99.90;;;13.90;73.74;99683.03;4824397;29;20476;-82
2022/09/27 07:35:14;;;;;;;6.60;3.85;;;13.70;99.90;;;13.99;74.01;99688.88;4839688;29;20047;-82
2022/09/27 07:37:44;;;;;;;11.82;3.70;;;13.70;99.90;;;13.65;73.93;99621.03;4839379;29;20050;-82
2022/09/27 07:40:13;;;;;;;12.83;3.63;;;13.80;99.90;;;14.12;74.03;99683.94;4839687;29;20062;-82
2022/09/27 07:42:42;;;;;;;6.38;3.70;;;13.90;99.90;;;14.16;74.21;99690.88;4839148;29;20057;-81
2022/09/27 07:45:11;;;;;;;10.93;4.28;;;13.90;99.90;;;14.25;74.45;99707.38;4839390;29;20141;-76
2022/09/27 07:48:00;;;;;;;7.80;3.50;;;14.00;99.90;;;14.29;73.90;99711.69;4825318;29;20062;-77
2022/09/27 07:50:48;;;;;;;9.85;3.88;;;14.10;99.90;;;14.18;74.26;99719.16;4825155;29;20578;-76
2022/09/27 07:53:39;;;;;;;9.63;3.55;;;14.00;99.90;;;14.01;75.35;99726.91;4824907;29;20058;-77
2022/09/27 07:56:26;;;;;;;5.38;3.78;;;13.80;99.90;;;14.02;74.96;99720.66;4825171;29;20516;-77
2022/09/27 07:58:56;;;;;;;7.65;3.63;;;13.80;99.90;;;13.80;75.86;99713.53;4838887;29;20072;-75
2022/09/27 08:01:24;;;;;;;8.00;3.47;;;13.60;99.90;;;13.83;76.50;99714.28;4838813;29;20106;-77
2022/09/27 08:03:53;;;;;;;8.20;3.50;;;13.60;99.90;;;13.81;77.03;99715.25;4838786;29;20050;-77
2022/09/27 08:06:23;;;;;;;7.10;4.38;;;13.50;99.90;;;13.91;76.95;99733.47;4838792;29;20080;-77
2022/09/27 08:08:53;;;;;;;7.60;3.38;;;13.60;99.90;;;13.94;77.06;99733.34;4838756;29;20055;-77
2022/09/27 08:11:21;;;;;;;7.55;3.72;;;13.70;99.90;;;13.82;76.73;99714.34;4838844;29;20046;-77
2022/09/27 08:13:51;;;;;;;7.72;3.55;;;13.70;99.90;;;13.94;76.89;99754.63;4838287;29;20057;-77
2022/09/27 08:16:24;;;;;;;12.73;4.45;;;13.70;99.90;;;13.97;77.39;99751.00;4838592;29;20122;-77
2022/09/27 08:19:13;;;;;;;9.70;4.20;;;13.70;99.90;;;13.94;77.65;99748.41;4824176;29;20420;-77
2022/09/27 08:22:02;;;;;;;6.68;3.08;;;13.70;99.90;;;13.87;77.51;99728.31;4838348;29;20058;-78
2022/09/27 08:24:53;;;;;;;6.88;3.72;;;13.70;99.90;;;13.93;77.65;99767.97;4823885;29;20101;-78
2022/09/27 08:27:40;;;;;;;8.65;3.58;;;13.60;99.90;;;13.85;77.69;99759.41;4824550;29;20062;-78
2022/09/27 08:30:20;;;;;;;7.70;3.67;;;13.60;99.90;;;13.88;77.80;99762.81;4838019;29;20070;-76
2022/09/27 08:32:48;;;;;;;6.65;3.45;;;13.60;99.90;;;13.87;78.07;99757.56;4837823;29;20062;-77
2022/09/27 08:35:16;;;;;;;9.77;3.83;;;13.60;99.90;;;13.69;78.25;99760.84;4838045;29;20528;-77
2022/09/27 08:37:54;;;;;;;10.02;3.97;;;13.50;99.90;;;13.48;78.89;99720.84;4824045;29;20482;-77
2022/09/27 08:40:26;;;;;;;10.13;3.78;;;13.50;99.90;;;13.69;78.92;99747.56;4823040;29;20144;-78
2022/09/27 08:43:06;;;;;;;11.77;3.50;;;13.40;99.90;;;13.65;76.87;99757.44;4838457;29;20572;-77
2022/09/27 08:45:41;;;;;;;9.27;3.88;;;13.40;99.90;;;13.76;75.43;99749.09;4824257;29;20073;-77
2022/09/27 08:48:11;;;;;;;8.20;3.70;;;13.50;99.90;;;13.77;75.34;99748.16;4838053;29;20056;-77
2022/09/27 08:50:44;;;;;;;9.88;3.60;;;13.60;99.90;;;13.45;75.52;99720.94;4824161;29;20038;-77
2022/09/27 08:53:23;;;;;;;7.45;3.10;;;13.50;99.90;;;13.63;75.74;99748.66;4822446;29;20085;-78
2022/09/27 08:55:55;;;;;;;8.85;3.67;;;13.40;99.90;;;13.52;76.87;99741.06;4838092;29;20050;-78
2022/09/27 08:58:30;;;;;;;10.77;3.53;;;13.30;99.90;;;13.53;77.88;99747.22;4838043;29;20145;-77
2022/09/27 09:01:03;;;;;;;11.40;4.55;;;13.30;99.90;;;13.65;78.50;99738.84;4838105;29;20386;-78
2022/09/27 09:03:43;;;;;;;11.10;4.03;;;13.30;99.90;;;13.74;78.12;99740.31;4837765;29;20062;-76
2022/09/27 09:06:19;;;;;;;8.05;3.33;;;13.40;99.90;;;13.83;78.56;99740.84;4823982;29;20153;-78
2022/09/27 09:09:04;;;;;;;12.15;4.28;;;13.50;99.90;;;13.74;78.49;99719.94;4837717;29;20058;-77
2022/09/27 09:15:03;;;;;;;12.50;4.35;;;13.70;99.90;;;13.99;79.39;99744.72;4837718;29;20111;-76
2022/09/27 09:17:55;;;;;;;16.75;4.45;;;13.70;99.90;;;14.17;78.42;99749.31;4823945;29;20042;-76
2022/09/27 09:20:52;;;;;;;7.13;3.65;;;13.90;99.90;;;13.89;79.98;99742.41;4837294;29;20054;-77
2022/09/27 09:23:38;;;;;;;14.93;4.22;;;13.60;99.90;;;13.78;80.18;99756.06;4823403;29;20481;-76
2022/09/27 09:26:14;;;;;;;11.32;3.63;;;13.50;99.90;;;13.74;79.50;99758.91;4823685;29;20050;-77
2022/09/27 09:29:05;;;;;;;11.90;4.18;;;13.50;99.90;;;13.56;80.68;99758.63;4837573;29;20120;-77
2022/09/27 09:31:42;;;;;;;9.85;4.15;;;13.30;99.90;;;13.73;79.59;99781.06;4837580;29;20055;-77
2022/09/27 09:34:20;;;;;;;10.75;4.10;;;13.50;99.90;;;13.50;79.13;99785.41;4836977;29;20062;-76
2022/09/27 09:36:56;;;;;;;8.70;3.72;;;13.40;99.90;;;13.28;78.35;99784.38;4823591;29;20145;-76
2022/09/27 09:39:30;;;;;;;6.50;3.53;;;13.20;99.90;;;13.29;79.29;99793.22;4837484;29;20466;-77
2022/09/27 09:42:11;;;;;;;5.60;3.22;;;13.00;99.90;;;13.17;78.96;99775.91;4823844;29;20141;-78
2022/09/27 09:44:48;;;;;;;5.63;3.10;;;13.00;99.90;;;13.26;78.70;99783.53;4837126;29;20061;-79
2022/09/27 09:47:28;;;;;;;7.28;3.17;;;13.00;99.90;;;13.27;79.22;99777.34;4837502;29;20064;-81
2022/09/27 09:50:01;;;;;;;10.07;3.30;;;13.00;99.90;;;13.32;79.31;99786.00;4837652;29;20065;-79
2022/09/27 09:52:40;;;;;;;7.80;3.50;;;13.10;99.90;;;13.23;79.63;99796.06;4823321;29;20050;-80
2022/09/27 09:55:20;;;;;;;4.43;3.45;;;13.00;99.90;;;13.31;79.79;99792.25;4837486;29;20524;-80
2022/09/27 09:58:07;;;;;;;6.47;3.20;;;13.00;99.90;;;13.43;79.99;99794.47;4837431;29;20054;-80
2022/09/27 10:00:44;;;;;;;5.90;3.20;;;13.20;99.90;;;13.42;79.58;99783.91;4837303;29;20082;-78
2022/09/27 10:03:12;;;;;;;6.22;3.20;;;13.20;99.90;;;13.46;79.56;99788.22;4837409;29;20191;-77
2022/09/27 10:05:44;;;;;;;4.85;3.25;;;13.20;99.90;;;13.49;79.05;99782.81;4839059;29;20050;-79
2022/09/27 10:08:20;;;;;;;3.60;2.97;;;13.20;99.90;;;13.40;78.94;99777.78;4840974;29;20050;-79
2022/09/27 10:10:57;;;;;;;5.50;3.38;;;13.20;99.90;;;12.99;79.77;99776.44;4840538;29;20195;-78
2022/09/27 10:13:36;;;;;;;5.22;3.10;;;12.70;99.90;;;13.13;79.27;99768.94;4826821;29;20137;-80
2022/09/27 10:16:10;;;;;;;5.85;3.63;;;12.70;99.90;;;12.77;80.51;99775.38;4840692;29;20062;-79
2022/09/27 10:18:41;;;;;;;5.25;3.20;;;12.40;99.90;;;12.87;81.27;99768.88;4840656;29;20058;-78
2022/09/27 10:21:22;;;;;;;3.95;3.15;;;12.50;99.90;;;12.74;81.27;99774.63;4840676;29;20059;-80
2022/09/27 10:24:07;;;;;;;5.00;3.00;;;12.50;99.90;;;12.34;81.88;99774.94;4840587;29;20054;-78
2022/09/27 10:27:14;;;;;;;3.55;2.80;;;12.20;99.90;;;12.12;83.44;99764.06;4821667;29;20058;-80
2022/09/27 10:29:43;;;;;;;4.68;2.95;;;11.90;99.90;;;11.88;84.73;99769.19;4840508;29;20145;-81
2022/09/27 10:32:26;;;;;;;7.25;3.22;;;11.70;99.90;;;11.70;85.83;99768.78;4839979;29;20058;-80
2022/09/27 10:35:34;;;;;;;6.93;3.40;;;11.60;99.90;;;11.51;87.21;99751.59;4825958;29;20058;-81
2022/09/27 10:38:23;;;;;;;5.85;3.30;;;11.30;99.90;;;11.11;87.73;99729.69;4825209;29;20054;-82
2022/09/27 10:41:15;;;;;;;5.80;3.38;;;11.10;99.90;;;11.38;88.63;99746.66;4840673;29;20082;-79
2022/09/27 10:43:44;;;;;;;6.68;3.20;;;11.10;99.90;;;11.42;89.00;99748.31;4840300;29;20111;-82
2022/09/27 10:46:28;;;;;;;5.13;3.55;;;11.10;99.90;;;11.44;87.97;99747.34;4839896;29;20050;-82
2022/09/27 10:49:18;;;;;;;8.82;3.88;;;11.20;99.90;;;11.39;88.37;99751.91;4839663;29;20061;-80
2022/09/27 10:51:52;;;;;;;6.68;3.50;;;11.20;99.90;;;11.52;88.00;99755.97;4839697;29;20080;-80
2022/09/27 10:54:26;;;;;;;6.00;3.42;;;11.30;99.90;;;11.51;87.83;99748.97;4839948;29;20413;-81
2022/09/27 10:57:03;;;;;;;7.05;3.45;;;11.40;99.90;;;11.65;87.91;99745.94;4840228;29;20047;-81
2022/09/27 10:59:36;;;;;;;6.35;3.33;;;11.50;99.90;;;11.87;87.53;99755.06;4839853;29;20493;-80
2022/09/27 11:02:06;;;;;;;7.25;3.20;;;11.70;99.90;;;12.02;87.51;99759.94;4826128;29;20098;-80